Casino Beach, Iowa
Current Conditions -  °F | °C
As of 12:55 PM on Friday 31 Oct 2014 (Local Time) from KSLB Reporting Station
Clear Clear  
Wind Chill: 28°   Ceiling: Unl
Heat Index: 36°   Visibility: 10mi
Dew Point: 18°   Wind: 10mph
Humidity: 48%   Direction: 20°NNE
Pressure: 30.55"   Gusts: 17mph
Location:  42.674°N, 95.1635°W
Report Text: KSLB 311755Z AUTO 02009G15KT 340V040 10SM CLR 02/M08 A3055 RMK AO2
Loading
Personal Weather Stations






























Interactive Weather Map
Tropical Storm Tracking
New forecast layout! Learn more

10-Day Weather Forecast

Advertisements
Track Severe Weather on mobile